Time;durP1;ratioP1;P1;durP2;ratioP2;P2;SDS_P1;SDS_P2;PMS_P1;PMS_P2;Temp;Humidity;BMP_temperature;BMP_pressure;BME280_temperature;BME280_humidity;BME280_pressure;Samples;Min_cycle;Max_cycle;Signal;HPM_P1;HPM_P2
2021/12/20 00:01:15;;;;;;;7.93;3.30;;;;;;;11.92;56.33;102293.28;5028706;28;20076;-89
2021/12/20 00:03:48;;;;;;;7.40;3.17;;;;;;;11.91;56.24;102284.25;5025858;28;20045;-89
2021/12/20 00:06:15;;;;;;;6.95;3.88;;;;;;;11.92;56.10;102285.13;5043763;28;20052;-89
2021/12/20 00:08:42;;;;;;;6.65;3.30;;;;;;;11.93;55.82;102289.59;5019957;28;20054;-88
2021/12/20 00:11:09;;;;;;;6.65;3.38;;;;;;;11.92;55.89;102272.41;5028775;28;20551;-90
2021/12/20 00:13:37;;;;;;;7.85;3.85;;;;;;;11.92;56.33;102282.41;5010978;28;20049;-89
2021/12/20 00:16:04;;;;;;;7.80;4.00;;;;;;;11.92;55.88;102275.13;5027060;28;20053;-90
2021/12/20 00:18:31;;;;;;;8.02;4.03;;;;;;;11.92;55.96;102279.69;5029197;28;20050;-89
2021/12/20 00:20:58;;;;;;;9.07;4.03;;;;;;;11.92;56.06;102285.13;5025558;28;20046;-89
2021/12/20 00:23:25;;;;;;;8.90;3.58;;;;;;;11.91;55.75;102295.13;5015427;28;20052;-89
2021/12/20 00:25:52;;;;;;;7.35;3.78;;;;;;;11.91;56.11;102286.06;5013033;28;20084;-89
2021/12/20 00:28:20;;;;;;;7.07;3.40;;;;;;;11.92;56.10;102279.69;5045406;28;20539;-89
2021/12/20 00:30:47;;;;;;;7.53;3.40;;;;;;;11.91;56.26;102277.91;5030203;28;20064;-89
2021/12/20 00:33:14;;;;;;;7.82;3.60;;;;;;;11.91;56.06;102273.34;5031956;28;20057;-90
2021/12/20 00:35:41;;;;;;;7.90;3.42;;;;;;;11.91;55.84;102272.47;5029320;28;20041;-89
2021/12/20 00:40:53;;;;;;;8.25;3.72;;;;;;;11.89;56.29;102264.38;5021381;28;20306;-90
2021/12/20 00:43:20;;;;;;;7.82;3.65;;;;;;;11.91;55.93;102267.03;5015279;28;20096;-90
2021/12/20 00:45:47;;;;;;;8.27;4.22;;;;;;;11.90;56.08;102265.25;5021522;28;20050;-90
2021/12/20 00:48:14;;;;;;;7.53;3.22;;;;;;;11.90;56.22;102268.88;5045358;28;20045;-90
2021/12/20 00:50:42;;;;;;;7.18;3.50;;;;;;;11.90;56.14;102271.59;5012104;28;20056;-89
2021/12/20 00:53:10;;;;;;;6.78;3.40;;;;;;;11.89;55.97;102267.09;5005922;28;20110;-89
2021/12/20 00:55:37;;;;;;;8.55;3.40;;;;;;;11.90;55.82;102265.25;5012426;28;20050;-89
2021/12/20 00:58:04;;;;;;;6.75;3.72;;;;;;;11.89;55.98;102263.50;5012506;28;20107;-89
2021/12/20 01:00:41;;;;;;;8.65;3.80;;;;;;;11.91;55.62;102258.84;5013325;28;20073;-89
2021/12/20 01:03:14;;;;;;;6.23;3.10;;;;;;;11.86;55.98;102259.06;4997665;28;20049;-89
2021/12/20 01:05:42;;;;;;;7.43;3.05;;;;;;;11.89;56.19;102258.03;5012113;28;20331;-89
2021/12/20 01:08:10;;;;;;;7.93;3.28;;;;;;;11.89;56.16;102256.22;5028779;28;20108;-89
2021/12/20 01:10:41;;;;;;;6.53;3.10;;;;;;;11.90;55.79;102259.81;5028994;28;20192;-89
2021/12/20 01:13:08;;;;;;;8.57;3.58;;;;;;;11.88;56.02;102254.44;5032400;28;20066;-89
2021/12/20 01:15:44;;;;;;;6.70;3.35;;;;;;;11.90;55.81;102263.41;5030170;28;20049;-89
2021/12/20 01:18:12;;;;;;;7.07;3.25;;;;;;;11.89;55.62;102268.94;5039234;28;20049;-89
2021/12/20 01:20:41;;;;;;;6.95;3.42;;;;;;;11.87;55.91;102266.28;5003497;28;20049;-90
2021/12/20 01:23:09;;;;;;;7.22;3.08;;;;;;;11.88;56.05;102269.88;5033030;28;20131;-89
2021/12/20 01:25:36;;;;;;;7.07;3.40;;;;;;;11.87;55.95;102266.28;5047895;28;20081;-89
2021/12/20 01:28:05;;;;;;;6.13;3.00;;;;;;;11.88;55.56;102261.72;5048564;28;20048;-90
2021/12/20 01:30:33;;;;;;;7.72;3.17;;;;;;;11.86;55.96;102261.78;5016031;28;20057;-89
2021/12/20 01:33:00;;;;;;;7.75;3.20;;;;;;;11.86;56.00;102271.81;5029802;28;20049;-90
2021/12/20 01:35:27;;;;;;;7.70;3.33;;;;;;;11.86;55.94;102267.22;5010361;28;20413;-90
2021/12/20 01:37:56;;;;;;;9.52;3.05;;;;;;;11.85;56.05;102267.34;5016121;28;20484;-89
2021/12/20 01:40:23;;;;;;;9.13;3.55;;;;;;;11.85;55.92;102265.50;5015780;28;20057;-89
2021/12/20 01:42:57;;;;;;;8.05;3.38;;;;;;;11.85;55.59;102278.22;5032210;28;20056;-89
2021/12/20 01:45:26;;;;;;;8.27;3.17;;;;;;;11.85;56.01;102270.06;5042143;28;20103;-89
2021/12/20 01:48:10;;;;;;;8.02;3.20;;;;;;;11.84;55.82;102263.72;5030196;28;20515;-89
2021/12/20 01:51:11;;;;;;;6.32;3.00;;;;;;;11.82;55.69;102274.69;5024628;28;20099;-89
2021/12/20 01:53:39;;;;;;;5.07;2.30;;;;;;;11.82;55.89;102265.63;5033131;28;20045;-88
2021/12/20 01:56:08;;;;;;;5.13;2.90;;;;;;;11.82;55.95;102255.63;5043256;28;20061;-88
2021/12/20 01:58:35;;;;;;;14.30;3.55;;;;;;;11.82;56.05;102262.91;5030529;28;20057;-90
2021/12/20 02:03:44;;;;;;;6.20;2.65;;;;;;;11.83;55.98;102256.53;5032465;28;20504;-89
2021/12/20 02:06:34;;;;;;;7.95;3.30;;;;;;;11.83;55.66;102256.53;5046691;28;20050;-90
2021/12/20 02:09:17;;;;;;;6.25;2.67;;;;;;;11.82;55.67;102252.03;5039997;28;20250;-89
2021/12/20 02:11:49;;;;;;;6.72;2.75;;;;;;;11.81;55.85;102261.16;5022531;28;20099;-89
2021/12/20 02:14:17;;;;;;;8.57;3.42;;;;;;;11.81;55.91;102262.03;5039746;28;20042;-89
2021/12/20 02:16:44;;;;;;;8.80;3.20;;;;;;;11.80;55.98;102254.81;5032033;28;20128;-90
2021/12/20 02:19:16;;;;;;;7.88;3.38;;;;;;;11.82;55.77;102265.63;5021165;28;20049;-90
2021/12/20 02:21:46;;;;;;;8.15;3.10;;;;;;;11.82;55.95;102257.47;5021493;28;20071;-89
2021/12/20 02:24:14;;;;;;;7.40;3.92;;;;;;;11.81;55.84;102263.88;5013294;28;20484;-89
2021/12/20 02:26:42;;;;;;;8.07;3.20;;;;;;;11.81;55.82;102263.88;5048351;28;20146;-89
2021/12/20 02:29:10;;;;;;;8.38;3.20;;;;;;;11.80;55.84;102254.81;5025600;28;20046;-89
2021/12/20 02:39:41;;;;;;;6.40;2.40;;;;;;;11.77;55.76;102265.88;5036741;28;20095;-89
2021/12/20 02:42:10;;;;;;;6.15;2.17;;;;;;;11.79;55.29;102260.34;5014231;28;20050;-88
2021/12/20 02:44:37;;;;;;;7.22;2.35;;;;;;;11.79;55.33;102254.91;5002190;28;20045;-89
2021/12/20 02:47:08;;;;;;;6.03;2.10;;;;;;;11.78;55.72;102247.69;5027428;28;20072;-89
2021/12/20 02:49:35;;;;;;;6.35;2.30;;;;;;;11.79;55.58;102249.44;5018116;28;20096;-90
2021/12/20 02:52:07;;;;;;;5.45;1.98;;;;;;;11.80;55.46;102249.38;5031176;28;20049;-88
2021/12/20 02:54:35;;;;;;;7.07;2.60;;;;;;;11.76;55.99;102253.22;5014219;28;20045;-88
2021/12/20 02:57:04;;;;;;;6.53;2.20;;;;;;;11.78;55.63;102254.00;5026676;28;20108;-88
2021/12/20 02:59:31;;;;;;;7.70;2.42;;;;;;;11.77;55.50;102257.72;5012973;28;20053;-88
2021/12/20 03:02:04;;;;;;;9.02;2.83;;;;;;;11.79;55.32;102263.06;5030840;28;20119;-88
2021/12/20 03:04:31;;;;;;;5.20;2.17;;;;;;;11.76;55.48;102255.94;5030625;28;20100;-88
2021/12/20 03:07:02;;;;;;;7.20;2.42;;;;;;;11.78;55.51;102256.72;5029502;28;20049;-88
2021/12/20 03:09:34;;;;;;;5.22;2.10;;;;;;;11.78;55.35;102251.28;5011037;28;20084;-86
2021/12/20 03:12:03;;;;;;;6.82;2.25;;;;;;;11.75;55.69;102250.59;5014486;28;20049;-88
2021/12/20 03:14:41;;;;;;;7.03;2.20;;;;;;;11.76;55.15;102253.22;5028899;28;20076;-88
2021/12/20 03:17:09;;;;;;;7.47;2.72;;;;;;;11.76;55.24;102257.78;5027286;28;20053;-88
2021/12/20 03:19:38;;;;;;;6.20;2.38;;;;;;;11.76;55.44;102255.94;5029650;28;20095;-89
2021/12/20 03:22:06;;;;;;;6.78;2.17;;;;;;;11.76;55.27;102252.34;5029940;28;20057;-88
2021/12/20 03:24:34;;;;;;;6.50;2.10;;;;;;;11.75;55.22;102259.63;5019781;28;20049;-88
2021/12/20 03:27:00;;;;;;;8.75;2.38;;;;;;;11.75;55.30;102253.31;5031179;28;20061;-88
2021/12/20 03:29:27;;;;;;;7.10;2.22;;;;;;;11.73;55.63;102258.78;5044276;28;20041;-88
2021/12/20 03:31:54;;;;;;;8.05;2.30;;;;;;;11.74;55.54;102256.94;5035252;28;20254;-88
2021/12/20 03:34:23;;;;;;;6.75;2.38;;;;;;;11.73;55.57;102256.06;5040782;28;20049;-88
2021/12/20 03:36:50;;;;;;;6.00;2.10;;;;;;;11.73;55.48;102266.06;5030385;28;20065;-89
2021/12/20 03:39:17;;;;;;;6.55;2.20;;;;;;;11.72;55.15;102257.00;5034319;28;20071;-88
2021/12/20 03:41:44;;;;;;;5.60;2.15;;;;;;;11.72;55.44;102265.19;5018959;28;20041;-88
2021/12/20 03:44:15;;;;;;;11.27;2.90;;;;;;;11.74;55.28;102268.75;5031445;28;20042;-89
2021/12/20 03:46:42;;;;;;;5.05;2.10;;;;;;;11.72;55.03;102267.91;5026461;28;20049;-88
2021/12/20 03:49:09;;;;;;;8.52;2.10;;;;;;;11.70;54.87;102258.91;5013106;28;20052;-88
2021/12/20 03:51:36;;;;;;;9.93;2.60;;;;;;;11.72;54.82;102257.00;4994333;28;20049;-88
2021/12/20 03:54:05;;;;;;;7.38;2.00;;;;;;;11.71;54.98;102254.34;5006149;28;20074;-88
2021/12/20 03:56:33;;;;;;;5.53;2.00;;;;;;;11.69;54.33;102264.47;5028962;28;20396;-88
2021/12/20 03:59:03;;;;;;;7.25;2.15;;;;;;;11.68;53.94;102266.31;5009476;28;20394;-88
2021/12/20 04:01:31;;;;;;;6.80;1.83;;;;;;;11.65;54.58;102263.72;5028599;28;20065;-88
2021/12/20 04:04:00;;;;;;;5.45;1.98;;;;;;;11.63;54.65;102260.19;5028722;28;20045;-88
2021/12/20 04:06:28;;;;;;;7.03;1.80;;;;;;;11.63;54.83;102256.56;5028129;28;20059;-88
2021/12/20 04:08:55;;;;;;;7.28;2.00;;;;;;;11.61;54.12;102250.34;5028457;28;20065;-87
2021/12/20 04:11:21;;;;;;;8.57;2.25;;;;;;;11.60;53.96;102254.91;5029641;28;20045;-87
2021/12/20 04:13:48;;;;;;;5.35;2.00;;;;;;;11.58;54.29;102250.50;5013083;28;20091;-88
2021/12/20 04:16:15;;;;;;;6.35;1.83;;;;;;;11.56;53.87;102257.84;5030865;28;20114;-88
2021/12/20 04:18:42;;;;;;;4.60;2.00;;;;;;;11.56;54.22;102249.69;5029081;28;20049;-88
2021/12/20 04:21:10;;;;;;;9.73;2.05;;;;;;;11.54;54.03;102255.19;5029432;28;20037;-88
2021/12/20 04:23:37;;;;;;;9.02;2.30;;;;;;;11.53;53.90;102253.41;5029279;28;20033;-89
2021/12/20 04:26:04;;;;;;;7.30;2.03;;;;;;;11.51;53.98;102251.75;5028473;28;20111;-87
2021/12/20 04:28:31;;;;;;;7.07;2.20;;;;;;;11.50;53.94;102250.88;5018767;28;20123;-87
2021/12/20 04:30:57;;;;;;;7.05;2.33;;;;;;;11.49;53.87;102259.97;5013155;28;20056;-88
2021/12/20 04:33:24;;;;;;;8.50;2.28;;;;;;;11.48;53.67;102262.75;5012757;28;20038;-88
2021/12/20 04:35:51;;;;;;;6.82;2.30;;;;;;;11.47;53.86;102259.16;5028143;28;20156;-88
2021/12/20 04:38:20;;;;;;;7.50;2.08;;;;;;;11.45;54.01;102256.50;5039471;28;20092;-88
2021/12/20 04:40:47;;;;;;;7.63;1.75;;;;;;;11.46;53.83;102262.84;5019131;28;20080;-88
2021/12/20 04:43:14;;;;;;;5.85;2.08;;;;;;;11.45;53.76;102270.09;5029615;28;20073;-88
2021/12/20 04:45:41;;;;;;;9.68;2.20;;;;;;;11.44;53.84;102265.66;5008886;28;20107;-87
2021/12/20 04:48:09;;;;;;;5.85;2.00;;;;;;;11.44;54.16;102259.34;5029879;28;20050;-87
2021/12/20 04:50:36;;;;;;;8.90;2.22;;;;;;;11.43;53.99;102263.88;5032896;28;20085;-86
2021/12/20 04:53:03;;;;;;;5.63;1.73;;;;;;;11.44;53.66;102260.22;5029489;28;20065;-87
2021/12/20 04:55:29;;;;;;;5.38;1.95;;;;;;;11.44;54.15;102262.94;5032861;28;20049;-88
2021/12/20 04:57:58;;;;;;;7.22;2.00;;;;;;;11.47;53.87;102267.31;5014932;28;20146;-87
2021/12/20 05:00:29;;;;;;;6.43;1.83;;;;;;;11.47;53.91;102267.31;5033151;28;20069;-86
2021/12/20 05:02:59;;;;;;;7.65;2.15;;;;;;;11.47;53.71;102258.28;5032172;28;20103;-86
2021/12/20 05:05:28;;;;;;;5.65;1.67;;;;;;;11.46;53.95;102262.84;4996736;28;20050;-87
2021/12/20 05:08:00;;;;;;;7.90;2.40;;;;;;;11.48;54.22;102257.31;5030215;28;20221;-87
2021/12/20 05:10:31;;;;;;;6.60;2.30;;;;;;;11.47;54.06;102252.84;5012340;28;20053;-87
2021/12/20 05:13:02;;;;;;;6.80;1.90;;;;;;;11.48;53.50;102260.94;5015228;28;20057;-87
2021/12/20 05:15:29;;;;;;;9.52;2.00;;;;;;;11.47;53.84;102256.44;5007993;28;20486;-87
2021/12/20 05:17:56;;;;;;;6.65;2.20;;;;;;;11.48;54.06;102258.22;5031288;28;20068;-87
2021/12/20 05:20:27;;;;;;;7.97;1.95;;;;;;;11.49;53.38;102259.09;5049018;28;20558;-87
2021/12/20 05:22:56;;;;;;;11.48;2.42;;;;;;;11.48;53.76;102260.03;5031294;28;20307;-87
2021/12/20 05:25:25;;;;;;;8.18;2.00;;;;;;;11.48;53.55;102262.75;5015932;28;20059;-89
2021/12/20 05:27:52;;;;;;;6.55;1.75;;;;;;;11.47;53.96;102258.28;5014209;28;20123;-89
2021/12/20 05:30:19;;;;;;;7.28;1.95;;;;;;;11.46;53.75;102260.13;5032778;28;20050;-89
2021/12/20 05:32:47;;;;;;;7.03;2.13;;;;;;;11.47;53.54;102266.44;5028558;28;20520;-86
2021/12/20 05:35:15;;;;;;;7.25;2.17;;;;;;;11.46;53.78;102254.66;5020804;28;20041;-87
2021/12/20 05:37:43;;;;;;;5.13;2.00;;;;;;;11.45;53.79;102255.63;5016102;28;20467;-87
2021/12/20 05:40:11;;;;;;;9.45;2.20;;;;;;;11.46;53.19;102268.28;5048703;28;20181;-87
2021/12/20 05:42:39;;;;;;;8.40;2.28;;;;;;;11.44;53.28;102264.78;5011792;28;20045;-87
2021/12/20 05:45:07;;;;;;;6.13;1.83;;;;;;;11.44;53.43;102262.94;5015570;28;20566;-87
2021/12/20 05:47:33;;;;;;;7.22;2.17;;;;;;;11.43;53.54;102268.44;5031035;28;20049;-89
2021/12/20 05:50:01;;;;;;;5.30;1.80;;;;;;;11.43;53.41;102263.88;5015714;28;20116;-87
2021/12/20 05:52:27;;;;;;;9.23;2.33;;;;;;;11.42;53.50;102270.28;5015250;28;20559;-87
2021/12/20 05:54:54;;;;;;;7.63;2.00;;;;;;;11.41;53.35;102265.78;5034134;28;20547;-87
2021/12/20 05:57:21;;;;;;;10.27;3.03;;;;;;;11.42;53.48;102272.13;5045952;28;20134;-88
2021/12/20 05:59:51;;;;;;;8.25;2.50;;;;;;;11.41;53.18;102275.78;5035658;28;20077;-87
2021/12/20 06:02:18;;;;;;;9.20;2.42;;;;;;;11.41;53.10;102270.34;5029172;28;20045;-88
2021/12/20 06:04:50;;;;;;;6.75;2.33;;;;;;;11.40;53.04;102272.19;5017451;28;20049;-89
2021/12/20 06:07:21;;;;;;;7.72;2.20;;;;;;;11.40;52.93;102283.06;5020513;28;20052;-88
2021/12/20 06:09:49;;;;;;;10.32;2.28;;;;;;;11.39;53.03;102277.69;5054694;28;20121;-90
2021/12/20 06:12:16;;;;;;;9.23;2.20;;;;;;;11.39;53.45;102285.84;5013649;28;20057;-90
2021/12/20 06:14:43;;;;;;;9.60;2.60;;;;;;;11.38;53.00;102284.97;5019196;28;20042;-92
2021/12/20 06:17:09;;;;;;;8.60;2.35;;;;;;;11.37;52.87;102285.91;5009254;28;20049;-90
2021/12/20 06:19:36;;;;;;;10.13;2.85;;;;;;;11.37;52.84;102287.75;5033562;28;20057;-90
2021/12/20 06:22:04;;;;;;;7.63;2.00;;;;;;;11.35;53.05;102290.56;5030145;28;20045;-89
2021/12/20 06:24:31;;;;;;;8.90;2.35;;;;;;;11.35;52.96;102292.41;5041829;28;20069;-89
2021/12/20 06:26:58;;;;;;;10.95;2.45;;;;;;;11.34;52.98;102296.94;5031405;28;20072;-90
2021/12/20 06:29:27;;;;;;;6.55;1.83;;;;;;;11.33;52.93;102297.91;5031733;28;20045;-90
2021/12/20 06:31:53;;;;;;;7.85;1.92;;;;;;;11.32;53.30;102295.25;5048175;28;20103;-90
2021/12/20 06:34:20;;;;;;;10.25;2.22;;;;;;;11.30;52.44;102289.00;5029717;28;20045;-89
2021/12/20 06:36:48;;;;;;;7.97;2.22;;;;;;;11.29;52.81;102292.66;5030658;28;20504;-90
2021/12/20 06:39:15;;;;;;;7.30;2.40;;;;;;;11.26;52.98;102300.97;5035337;28;20049;-90
2021/12/20 06:41:42;;;;;;;7.78;2.22;;;;;;;11.24;52.81;102294.72;5032362;28;20550;-90
2021/12/20 06:44:18;;;;;;;12.55;3.28;;;;;;;11.21;51.69;102303.00;5016677;28;20068;-90
2021/12/20 06:46:44;;;;;;;12.05;2.40;;;;;;;11.14;52.48;102301.53;5032736;28;20052;-90
2021/12/20 06:49:12;;;;;;;7.70;2.55;;;;;;;11.12;52.13;102303.47;5022607;28;20049;-90
2021/12/20 06:51:42;;;;;;;10.57;3.08;;;;;;;11.08;52.53;102305.44;5040080;28;20046;-90
2021/12/20 06:54:11;;;;;;;9.38;2.05;;;;;;;11.05;52.49;102311.00;5014146;28;20045;-89
2021/12/20 06:56:42;;;;;;;6.97;2.00;;;;;;;11.00;52.40;102310.34;5026333;28;20056;-90
2021/12/20 06:59:10;;;;;;;8.80;2.28;;;;;;;10.98;52.23;102304.97;5031989;28;20049;-89
2021/12/20 07:01:37;;;;;;;11.35;2.38;;;;;;;10.94;52.49;102308.78;5053365;28;20420;-89
2021/12/20 07:04:05;;;;;;;10.30;2.60;;;;;;;10.92;52.54;102312.50;5046634;28;20494;-89
2021/12/20 07:06:34;;;;;;;7.97;2.10;;;;;;;10.89;52.40;102318.97;5014785;28;20050;-90
2021/12/20 07:09:01;;;;;;;9.93;2.95;;;;;;;10.86;52.62;102320.94;5036731;28;20100;-90
2021/12/20 07:11:30;;;;;;;7.20;2.50;;;;;;;10.85;52.52;102311.03;5026880;28;20037;-89
2021/12/20 07:13:57;;;;;;;9.32;2.53;;;;;;;10.83;52.54;102313.81;5048216;28;20505;-91
2021/12/20 07:16:25;;;;;;;8.43;2.00;;;;;;;10.79;52.55;102323.03;5014277;28;20037;-90
2021/12/20 07:18:51;;;;;;;8.98;2.67;;;;;;;10.78;52.68;102321.28;5010422;28;20049;-90
2021/12/20 07:21:18;;;;;;;11.02;2.35;;;;;;;10.75;52.38;102325.97;5028392;28;20069;-90
2021/12/20 07:23:45;;;;;;;11.65;3.10;;;;;;;10.75;52.52;102328.69;5009021;28;20053;-89
2021/12/20 07:26:13;;;;;;;8.25;2.30;;;;;;;10.72;52.47;102339.66;5030729;28;20096;-90
2021/12/20 07:28:42;;;;;;;8.07;2.83;;;;;;;10.70;52.24;102339.75;5014086;28;20067;-90
2021/12/20 07:31:13;;;;;;;9.48;2.90;;;;;;;10.68;52.50;102336.22;5015279;28;20045;-90
2021/12/20 07:33:42;;;;;;;8.52;2.55;;;;;;;10.64;52.64;102346.31;5015391;28;20048;-90
2021/12/20 07:36:09;;;;;;;10.52;3.05;;;;;;;10.61;52.74;102349.19;5012028;28;20041;-89
2021/12/20 07:38:38;;;;;;;9.25;2.85;;;;;;;10.59;52.66;102337.50;5030553;28;20049;-90
2021/12/20 07:41:05;;;;;;;9.65;2.60;;;;;;;10.58;52.53;102337.56;5013374;28;20499;-90
2021/12/20 07:43:32;;;;;;;9.57;2.78;;;;;;;10.58;52.63;102343.88;5021011;28;20080;-90
2021/12/20 07:46:01;;;;;;;7.75;2.65;;;;;;;10.57;52.71;102336.69;5040731;28;20072;-90
2021/12/20 07:48:28;;;;;;;12.90;3.53;;;;;;;10.57;52.76;102342.13;5030441;28;20046;-90
2021/12/20 07:50:57;;;;;;;12.50;3.83;;;;;;;10.56;52.86;102348.50;5019181;28;20057;-90
2021/12/20 07:53:24;;;;;;;13.68;3.47;;;;;;;10.58;52.97;102348.44;5030882;28;20041;-90
2021/12/20 07:55:51;;;;;;;8.27;3.20;;;;;;;10.60;52.93;102351.97;5011333;28;20053;-89
2021/12/20 07:58:19;;;;;;;9.82;2.85;;;;;;;10.60;52.99;102350.13;5028769;28;20045;-90
2021/12/20 08:00:46;;;;;;;9.20;3.20;;;;;;;10.62;52.76;102350.06;5017049;28;20080;-90
2021/12/20 08:03:13;;;;;;;10.52;3.45;;;;;;;10.63;52.87;102351.81;5023183;28;20444;-89
2021/12/20 08:05:42;;;;;;;8.25;2.97;;;;;;;10.65;53.03;102358.06;5025972;28;20057;-89
2021/12/20 08:08:09;;;;;;;12.45;3.50;;;;;;;10.65;52.81;102347.22;5031464;28;20045;-89
2021/12/20 08:10:36;;;;;;;11.93;3.40;;;;;;;10.67;52.96;102353.47;5029877;28;20400;-90
2021/12/20 08:13:03;;;;;;;11.85;3.78;;;;;;;10.68;52.79;102349.81;5004098;28;20099;-89
2021/12/20 08:15:30;;;;;;;10.02;3.08;;;;;;;10.68;52.86;102352.53;5012179;28;20128;-90
2021/12/20 08:17:57;;;;;;;9.23;3.13;;;;;;;10.67;52.60;102351.63;5013278;28;20115;-91
2021/12/20 08:20:26;;;;;;;10.93;3.50;;;;;;;10.67;52.54;102354.34;5026048;28;20049;-90
2021/12/20 08:22:57;;;;;;;10.07;4.07;;;;;;;10.66;52.51;102355.31;5048583;28;20096;-89
2021/12/20 08:25:24;;;;;;;10.32;3.67;;;;;;;10.66;52.44;102351.69;5020992;28;20054;-89
2021/12/20 08:27:55;;;;;;;9.80;3.60;;;;;;;10.65;52.54;102361.69;5033933;28;20053;-90
2021/12/20 08:30:22;;;;;;;9.48;3.08;;;;;;;10.64;52.78;102357.19;5016583;28;20099;-90
2021/12/20 08:32:50;;;;;;;11.00;3.30;;;;;;;10.65;52.77;102369.81;5010184;28;20050;-90
2021/12/20 08:35:17;;;;;;;11.48;3.63;;;;;;;10.63;52.56;102371.72;5014116;28;20049;-89
2021/12/20 08:37:44;;;;;;;9.32;3.60;;;;;;;10.63;52.59;102369.00;5014796;28;20116;-89
2021/12/20 08:40:16;;;;;;;9.85;3.65;;;;;;;10.65;52.35;102366.22;5025994;28;20061;-91
2021/12/20 08:42:46;;;;;;;15.00;4.45;;;;;;;10.63;52.29;102363.56;5012676;28;20099;-91
2021/12/20 08:45:15;;;;;;;10.52;3.60;;;;;;;10.63;52.47;102368.13;5005262;28;20480;-90
2021/12/20 08:47:44;;;;;;;12.77;4.50;;;;;;;10.60;52.67;102365.56;5018088;28;20141;-90
2021/12/20 08:50:15;;;;;;;13.52;4.45;;;;;;;10.60;52.09;102369.16;5011653;28;20080;-92
2021/12/20 08:52:42;;;;;;;11.45;3.80;;;;;;;10.57;52.66;102373.81;5018352;28;20053;-91
2021/12/20 08:55:10;;;;;;;14.25;4.03;;;;;;;10.57;52.51;102373.81;5014965;28;20045;-88
2021/12/20 08:57:37;;;;;;;15.05;5.00;;;;;;;10.55;52.52;102381.13;5015835;28;20538;-88
2021/12/20 09:00:07;;;;;;;14.13;3.97;;;;;;;10.55;52.67;102382.03;5032051;28;20053;-88
2021/12/20 09:02:34;;;;;;;13.10;4.40;;;;;;;10.55;52.60;102383.84;5049737;28;20041;-90
2021/12/20 09:05:01;;;;;;;12.30;4.20;;;;;;;10.55;52.72;102386.56;5044504;28;20077;-87
2021/12/20 09:07:29;;;;;;;10.10;3.97;;;;;;;10.55;52.86;102382.03;5004746;28;20073;-89
2021/12/20 09:09:56;;;;;;;17.95;4.80;;;;;;;10.56;52.51;102386.50;4995383;28;20054;-87
2021/12/20 09:12:23;;;;;;;9.57;3.92;;;;;;;10.57;52.61;102382.84;4993187;28;20109;-88
2021/12/20 09:14:50;;;;;;;14.15;4.43;;;;;;;10.58;52.95;102390.06;4987269;28;20050;-89
2021/12/20 09:17:19;;;;;;;13.27;4.85;;;;;;;10.59;52.46;102388.22;5000014;28;20050;-86
2021/12/20 09:19:48;;;;;;;13.85;4.35;;;;;;;10.61;52.18;102398.09;5021369;28;20058;-88
2021/12/20 09:22:17;;;;;;;14.90;4.32;;;;;;;10.62;52.45;102391.66;5018228;28;20049;-86
2021/12/20 09:24:45;;;;;;;14.10;4.57;;;;;;;10.63;52.63;102401.59;5001982;28;20049;-84
2021/12/20 09:27:12;;;;;;;12.27;3.85;;;;;;;10.64;52.74;102397.03;5013608;28;20054;-84
2021/12/20 09:29:41;;;;;;;13.02;4.35;;;;;;;10.65;52.48;102398.81;5016969;28;20058;-85
2021/12/20 09:32:08;;;;;;;11.20;4.40;;;;;;;10.66;52.51;102406.03;4998708;28;20102;-84
2021/12/20 09:34:37;;;;;;;11.57;3.90;;;;;;;10.70;52.62;102407.66;5015060;28;20481;-84
2021/12/20 09:37:08;;;;;;;12.77;4.20;;;;;;;10.74;52.52;102402.97;5022000;28;20050;-87
2021/12/20 09:39:41;;;;;;;9.77;3.67;;;;;;;10.75;52.74;102407.47;5004627;28;20510;-87
2021/12/20 09:42:12;;;;;;;12.48;3.72;;;;;;;10.80;52.78;102411.75;5001317;28;20046;-88
2021/12/20 09:44:43;;;;;;;10.02;3.67;;;;;;;10.84;52.30;102409.78;4978976;28;20488;-87
2021/12/20 09:47:10;;;;;;;11.90;4.03;;;;;;;10.85;52.66;102420.59;4983122;28;20133;-87
2021/12/20 09:49:40;;;;;;;9.82;3.67;;;;;;;10.87;52.25;102413.22;4996763;28;20078;-84
2021/12/20 09:52:08;;;;;;;9.60;3.20;;;;;;;10.90;52.38;102414.94;4996254;28;20068;-82
2021/12/20 09:54:39;;;;;;;11.98;3.55;;;;;;;10.93;52.23;102406.69;4983426;28;20027;-84
2021/12/20 09:57:10;;;;;;;11.00;3.65;;;;;;;10.96;52.05;102401.09;4996319;28;20049;-87
2021/12/20 09:59:39;;;;;;;10.95;3.45;;;;;;;10.96;52.21;102410.13;5034187;28;20298;-90
2021/12/20 10:02:10;;;;;;;10.30;3.45;;;;;;;10.99;52.03;102407.28;5014494;28;20104;-85
2021/12/20 10:04:40;;;;;;;8.98;3.35;;;;;;;11.00;52.32;102414.50;5004090;28;20128;-85
2021/12/20 10:07:08;;;;;;;8.95;3.55;;;;;;;11.04;52.37;102412.50;5011772;28;20525;-84
2021/12/20 10:09:37;;;;;;;9.55;3.30;;;;;;;11.07;51.87;102415.97;4979262;28;20557;-85
2021/12/20 10:12:10;;;;;;;15.90;3.80;;;;;;;11.10;51.16;102405.94;4958827;28;20051;-84
2021/12/20 10:14:56;;;;;;;12.50;3.60;;;;;;;11.09;50.84;102415.03;4977312;28;20103;-88
2021/12/20 10:17:26;;;;;;;12.02;3.25;;;;;;;11.09;51.83;102417.75;4972475;28;20076;-83
2021/12/20 10:19:53;;;;;;;10.63;3.00;;;;;;;11.13;51.70;102416.66;4982037;28;20137;-83
2021/12/20 10:22:21;;;;;;;9.25;3.22;;;;;;;11.16;51.53;102421.97;4970509;28;20453;-82
2021/12/20 10:24:49;;;;;;;8.55;3.10;;;;;;;11.17;51.91;102419.19;4990243;28;20101;-83
2021/12/20 10:27:36;;;;;;;10.63;3.05;;;;;;;11.21;50.99;102415.34;4987232;28;20077;-83
2021/12/20 10:30:28;;;;;;;9.68;2.63;;;;;;;11.21;50.22;102419.91;4985697;28;20498;-83
2021/12/20 10:32:56;;;;;;;12.10;3.33;;;;;;;11.25;52.06;102419.72;4988253;28;20054;-82
2021/12/20 10:35:25;;;;;;;9.68;3.13;;;;;;;11.30;51.35;102412.22;4986341;28;20101;-82
2021/12/20 10:37:57;;;;;;;7.95;2.38;;;;;;;11.34;50.75;102411.16;4984676;28;20078;-82
2021/12/20 10:40:24;;;;;;;9.82;2.85;;;;;;;11.34;51.63;102411.16;5008541;28;20460;-82
2021/12/20 10:42:53;;;;;;;9.68;2.80;;;;;;;11.38;51.38;102412.78;5011426;28;20507;-82
2021/12/20 10:45:24;;;;;;;9.30;2.63;;;;;;;11.41;51.35;102412.63;5011919;28;20072;-82
2021/12/20 10:47:51;;;;;;;8.95;2.80;;;;;;;11.45;51.20;102416.09;5022616;28;20505;-82
2021/12/20 10:50:27;;;;;;;8.40;2.50;;;;;;;11.49;50.91;102414.13;5010709;28;20413;-82
2021/12/20 10:53:11;;;;;;;8.35;2.70;;;;;;;11.55;49.29;102416.56;5012122;28;20105;-82
2021/12/20 10:55:44;;;;;;;11.00;2.80;;;;;;;11.58;49.98;102409.16;5026578;28;20080;-82
2021/12/20 10:58:36;;;;;;;8.43;2.70;;;;;;;11.63;48.96;102404.38;5028935;28;20057;-82
2021/12/20 11:01:13;;;;;;;7.57;2.10;;;;;;;11.64;49.58;102400.69;5030595;28;20048;-82
2021/12/20 11:03:42;;;;;;;8.02;2.60;;;;;;;11.66;50.03;102400.63;5025906;28;20076;-83
2021/12/20 11:11:37;;;;;;;10.80;2.95;;;;;;;11.63;47.56;102401.63;5027352;28;20050;-83
2021/12/20 11:14:07;;;;;;;11.05;3.60;;;;;;;11.64;49.13;102399.81;5010394;28;20140;-89
2021/12/20 11:16:45;;;;;;;9.30;3.13;;;;;;;11.64;46.73;102400.69;5026685;28;20081;-88
2021/12/20 11:19:22;;;;;;;8.77;3.00;;;;;;;11.64;47.82;102406.13;5016153;28;20045;-87
2021/12/20 11:21:58;;;;;;;7.40;2.80;;;;;;;11.64;48.35;102394.38;5018763;28;20045;-87
2021/12/20 11:24:31;;;;;;;8.25;3.13;;;;;;;11.65;47.40;102398.84;5010847;28;20485;-86
2021/12/20 11:27:00;;;;;;;9.68;2.85;;;;;;;11.68;48.98;102393.28;5047013;28;20103;-86
2021/12/20 11:29:27;;;;;;;10.45;4.05;;;;;;;11.71;48.61;102393.13;5009296;28;20056;-85
2021/12/20 11:31:55;;;;;;;10.98;2.95;;;;;;;11.73;48.75;102392.09;5015028;28;20053;-85
2021/12/20 11:34:21;;;;;;;7.93;2.47;;;;;;;11.74;48.89;102393.91;5028300;28;20423;-85
2021/12/20 11:36:48;;;;;;;8.15;2.35;;;;;;;11.76;48.60;102386.56;5010776;28;20107;-84
2021/12/20 11:39:15;;;;;;;6.93;2.45;;;;;;;11.79;48.54;102386.41;5034533;28;20134;-85
2021/12/20 11:41:42;;;;;;;8.43;2.45;;;;;;;11.84;49.00;102386.19;5013553;28;20184;-84
2021/12/20 11:44:14;;;;;;;7.50;2.00;;;;;;;11.91;47.88;102384.94;5029995;28;20071;-84
2021/12/20 11:46:57;;;;;;;8.10;2.15;;;;;;;11.95;45.95;102389.25;5026929;28;20127;-86
2021/12/20 11:49:26;;;;;;;5.32;1.58;;;;;;;11.98;47.97;102390.97;5023990;28;20484;-81
2021/12/20 11:52:04;;;;;;;3.92;1.58;;;;;;;12.03;46.32;102389.78;5023055;28;20513;-82